createdAt,value
2023-01-26T00:01:34.021Z,82.79
2023-01-26T00:04:13.724Z,82.86
2023-01-26T00:06:46.891Z,83.00
2023-01-26T00:09:21.947Z,83.11
2023-01-26T00:11:53.068Z,83.47
2023-01-26T00:14:23.264Z,82.89
2023-01-26T00:16:59.372Z,83.24
2023-01-26T00:19:31.174Z,83.20
2023-01-26T00:22:02.730Z,83.84
2023-01-26T00:24:33.181Z,83.75
2023-01-26T00:27:03.219Z,83.41
2023-01-26T00:29:33.721Z,83.92
2023-01-26T00:32:04.306Z,84.25
2023-01-26T00:34:34.688Z,83.78
2023-01-26T00:37:05.088Z,83.74
2023-01-26T00:39:43.089Z,83.35
2023-01-26T00:42:17.664Z,83.35
2023-01-26T00:44:48.779Z,83.23
2023-01-26T00:47:21.505Z,83.31
2023-01-26T00:49:53.759Z,82.93
2023-01-26T00:52:24.021Z,83.19
2023-01-26T00:54:54.003Z,83.03
2023-01-26T00:57:24.339Z,83.58
2023-01-26T00:59:54.366Z,83.96
2023-01-26T01:02:27.445Z,83.96
2023-01-26T01:04:58.245Z,84.02
2023-01-26T01:07:29.088Z,83.77
2023-01-26T01:10:02.421Z,83.76
2023-01-26T01:12:32.802Z,83.95
2023-01-26T01:15:03.824Z,83.85
2023-01-26T01:17:35.630Z,83.89
2023-01-26T01:20:08.580Z,84.23
2023-01-26T01:22:39.563Z,84.26
2023-01-26T01:25:11.086Z,84.43
2023-01-26T01:27:41.666Z,84.21
2023-01-26T01:30:14.046Z,84.37
2023-01-26T01:33:23.985Z,84.13
2023-01-26T01:36:05.401Z,84.26
2023-01-26T01:38:53.843Z,83.46
2023-01-26T01:41:43.781Z,84.89
2023-01-26T01:44:23.605Z,84.99
2023-01-26T01:46:59.022Z,84.56
2023-01-26T01:49:35.508Z,84.62
2023-01-26T01:52:22.955Z,84.90
2023-01-26T01:55:13.126Z,85.03
2023-01-26T01:57:56.469Z,85.16
2023-01-26T02:00:36.256Z,85.10
2023-01-26T02:03:22.919Z,85.04
2023-01-26T02:06:37.227Z,85.01
2023-01-26T02:09:37.581Z,84.64
2023-01-26T02:12:11.993Z,84.84
2023-01-26T02:14:43.826Z,84.89
2023-01-26T02:17:14.388Z,84.76
2023-01-26T02:20:13.544Z,84.99
2023-01-26T02:23:02.638Z,85.03
2023-01-26T02:25:51.466Z,84.96
2023-01-26T02:28:31.064Z,85.24
2023-01-26T02:31:02.649Z,84.39
2023-01-26T02:33:35.362Z,85.25
2023-01-26T02:36:09.129Z,85.40
2023-01-26T02:39:07.391Z,85.56
2023-01-26T02:41:55.929Z,85.41
2023-01-26T02:44:27.977Z,85.64
2023-01-26T02:47:01.223Z,85.62
2023-01-26T02:49:55.822Z,85.63
2023-01-26T02:52:35.385Z,85.60
2023-01-26T02:55:27.379Z,85.98
2023-01-26T02:58:00.575Z,86.23
2023-01-26T03:00:39.086Z,86.12
2023-01-26T03:03:21.166Z,86.71
2023-01-26T03:05:54.263Z,86.68
2023-01-26T03:08:24.438Z,86.56
2023-01-26T03:10:54.616Z,86.77
2023-01-26T03:13:25.157Z,86.62
2023-01-26T03:15:55.903Z,86.74
2023-01-26T03:18:43.953Z,86.59
2023-01-26T03:21:36.090Z,86.76
2023-01-26T03:24:25.846Z,86.77
2023-01-26T03:27:15.461Z,87.22
2023-01-26T03:29:46.336Z,87.06
2023-01-26T03:32:17.283Z,87.21
2023-01-26T03:34:47.821Z,87.09
2023-01-26T03:37:23.340Z,86.91
2023-01-26T03:40:21.161Z,86.92
2023-01-26T03:43:11.553Z,87.09
2023-01-26T03:46:00.867Z,87.07
2023-01-26T03:48:52.160Z,87.06
2023-01-26T03:51:40.400Z,87.01
2023-01-26T03:54:29.124Z,87.29
2023-01-26T03:56:59.316Z,87.33
2023-01-26T03:59:41.870Z,87.58
2023-01-26T04:02:34.258Z,87.54
2023-01-26T04:05:23.878Z,87.49
2023-01-26T04:08:25.995Z,87.89
2023-01-26T04:11:04.621Z,87.62
2023-01-26T04:13:53.207Z,87.55
2023-01-26T04:16:50.172Z,87.73
2023-01-26T04:19:38.464Z,87.44
2023-01-26T04:22:09.863Z,87.50
2023-01-26T04:24:40.206Z,87.54
2023-01-26T04:27:10.390Z,87.45
2023-01-26T04:29:43.478Z,87.27
2023-01-26T04:32:13.842Z,87.40
2023-01-26T04:34:43.960Z,87.75
2023-01-26T04:37:22.145Z,87.90
2023-01-26T04:39:54.343Z,87.93
2023-01-26T04:42:25.856Z,87.95
2023-01-26T04:44:57.144Z,87.80
2023-01-26T04:47:29.321Z,87.80
2023-01-26T04:50:00.030Z,87.97
2023-01-26T04:52:30.252Z,87.95
2023-01-26T04:55:01.180Z,88.19
2023-01-26T04:57:33.951Z,88.18
2023-01-26T05:00:06.671Z,88.13
2023-01-26T05:02:36.989Z,88.22
2023-01-26T05:05:07.257Z,88.18
2023-01-26T05:07:37.368Z,88.24
2023-01-26T05:10:07.818Z,88.21
2023-01-26T05:12:56.167Z,88.47
2023-01-26T05:15:43.369Z,88.50
2023-01-26T05:18:26.869Z,88.38
2023-01-26T05:21:07.049Z,88.17
2023-01-26T05:23:42.322Z,88.22
2023-01-26T05:26:12.560Z,88.33
2023-01-26T05:28:52.859Z,88.54
2023-01-26T05:31:23.163Z,88.60
2023-01-26T05:33:53.418Z,88.39
2023-01-26T05:36:26.068Z,88.43
2023-01-26T05:38:56.496Z,88.60
2023-01-26T05:41:28.792Z,88.47
2023-01-26T05:44:17.264Z,88.54
2023-01-26T05:47:09.849Z,88.65
2023-01-26T05:49:44.053Z,88.71
2023-01-26T05:52:21.238Z,88.73
2023-01-26T05:54:52.709Z,88.63
2023-01-26T05:57:22.910Z,88.44
2023-01-26T05:59:57.500Z,88.43
2023-01-26T06:02:30.776Z,88.32
2023-01-26T06:05:00.926Z,88.09
2023-01-26T06:07:31.016Z,88.08
2023-01-26T06:10:13.060Z,87.94
2023-01-26T06:13:09.437Z,87.99
2023-01-26T06:15:54.419Z,87.77
2023-01-26T06:18:28.585Z,87.83
2023-01-26T06:21:03.120Z,87.82
2023-01-26T06:23:33.544Z,87.87
2023-01-26T06:26:05.250Z,88.07
2023-01-26T06:28:37.340Z,88.17
2023-01-26T06:31:09.334Z,88.02
2023-01-26T06:33:40.836Z,88.00
2023-01-26T06:36:14.243Z,88.00
2023-01-26T06:38:50.584Z,88.08
2023-01-26T06:41:21.268Z,87.92
2023-01-26T06:43:52.935Z,87.90
2023-01-26T06:46:23.414Z,87.90
2023-01-26T06:48:55.743Z,87.76
2023-01-26T06:51:46.871Z,87.66
2023-01-26T06:54:17.347Z,87.67
2023-01-26T06:57:16.423Z,87.75
2023-01-26T07:00:16.167Z,87.59
2023-01-26T07:03:04.432Z,87.72
2023-01-26T07:05:34.806Z,87.62
2023-01-26T07:08:07.617Z,87.63
2023-01-26T07:10:39.072Z,87.56
2023-01-26T07:13:09.559Z,87.42
2023-01-26T07:15:39.485Z,87.62
2023-01-26T07:18:10.026Z,87.56
2023-01-26T07:20:39.987Z,87.61
2023-01-26T07:23:10.117Z,87.58
2023-01-26T07:25:40.010Z,87.39
2023-01-26T07:28:11.983Z,87.34
2023-01-26T07:30:42.063Z,87.31
2023-01-26T07:33:12.133Z,87.24
2023-01-26T07:35:42.348Z,87.40
2023-01-26T07:38:12.374Z,87.16
2023-01-26T07:40:42.502Z,87.13
2023-01-26T07:43:12.413Z,87.17
2023-01-26T07:45:56.675Z,87.30
2023-01-26T07:48:26.926Z,87.06
2023-01-26T07:50:59.278Z,87.19
2023-01-26T07:53:31.353Z,87.08
2023-01-26T07:56:27.503Z,87.19
2023-01-26T07:58:58.210Z,87.23
2023-01-26T08:01:28.125Z,87.17
2023-01-26T08:03:58.656Z,87.34
2023-01-26T08:06:28.552Z,87.26
2023-01-26T08:08:59.254Z,87.28
2023-01-26T08:11:29.148Z,87.36
2023-01-26T08:13:59.264Z,87.58
2023-01-26T08:16:29.315Z,87.67
2023-01-26T08:18:59.435Z,87.64
2023-01-26T08:21:30.658Z,88.20
2023-01-26T08:24:03.088Z,88.14
2023-01-26T08:26:34.007Z,88.25
2023-01-26T08:29:04.401Z,88.29
2023-01-26T08:31:34.726Z,88.23
2023-01-26T08:34:05.583Z,88.08
2023-01-26T08:36:35.512Z,88.23
2023-01-26T08:39:06.223Z,88.33
2023-01-26T08:41:36.133Z,88.36
2023-01-26T08:44:06.251Z,88.28
2023-01-26T08:46:36.119Z,88.38
2023-01-26T08:49:07.380Z,88.28
2023-01-26T08:51:37.486Z,88.18
2023-01-26T08:54:09.798Z,87.94
2023-01-26T08:56:40.062Z,87.56
2023-01-26T08:59:10.045Z,87.82
2023-01-26T09:01:40.292Z,87.63
2023-01-26T09:04:10.198Z,87.46
2023-01-26T09:06:40.397Z,87.30
2023-01-26T09:09:14.369Z,87.55
2023-01-26T09:11:44.760Z,87.47
2023-01-26T09:14:14.648Z,87.68
2023-01-26T09:16:44.829Z,87.65
2023-01-26T09:19:14.748Z,87.47
2023-01-26T09:21:45.192Z,87.34
2023-01-26T09:24:15.100Z,86.83
2023-01-26T09:26:45.261Z,86.68
2023-01-26T09:29:15.282Z,86.53
2023-01-26T09:31:45.806Z,86.13
2023-01-26T09:34:16.247Z,85.64
2023-01-26T09:36:46.627Z,85.92
2023-01-26T09:39:16.498Z,85.29
2023-01-26T09:42:53.567Z,84.75
2023-01-26T09:45:33.561Z,84.75
2023-01-26T09:48:25.172Z,84.20
2023-01-26T09:51:24.651Z,83.63
2023-01-26T09:54:18.174Z,83.19
2023-01-26T09:56:48.716Z,82.62
2023-01-26T09:59:36.128Z,83.26
2023-01-26T10:02:30.047Z,82.74
2023-01-26T10:05:03.517Z,81.64
2023-01-26T10:07:34.090Z,81.08
2023-01-26T10:10:05.801Z,81.07
2023-01-26T10:12:39.768Z,80.31
2023-01-26T10:15:30.839Z,80.56
2023-01-26T10:18:07.724Z,77.35
2023-01-26T10:20:52.355Z,76.58
2023-01-26T10:23:31.627Z,74.57
2023-01-26T10:26:22.759Z,71.76
2023-01-26T10:28:54.451Z,69.39
2023-01-26T10:31:28.973Z,69.25
2023-01-26T10:34:21.888Z,69.84
2023-01-26T10:36:52.455Z,70.19
2023-01-26T10:39:22.492Z,69.69
2023-01-26T10:42:02.716Z,69.86
2023-01-26T10:44:34.366Z,68.79
2023-01-26T10:47:24.755Z,69.56
2023-01-26T10:49:55.030Z,69.84
2023-01-26T10:52:26.792Z,70.27
2023-01-26T10:55:14.822Z,70.76
2023-01-26T10:57:45.075Z,70.00
2023-01-26T11:00:23.878Z,69.99
2023-01-26T11:02:57.082Z,70.11
2023-01-26T11:05:28.343Z,69.33
2023-01-26T11:08:04.307Z,68.97
2023-01-26T11:10:52.718Z,68.14
2023-01-26T11:13:23.856Z,66.98
2023-01-26T11:16:21.907Z,67.94
2023-01-26T11:19:21.586Z,65.59
2023-01-26T11:22:06.000Z,65.83
2023-01-26T11:24:53.714Z,66.31
2023-01-26T11:27:31.084Z,66.42
2023-01-26T11:30:21.941Z,68.92
2023-01-26T11:33:10.205Z,68.73
2023-01-26T11:35:52.153Z,67.37
2023-01-26T11:38:32.501Z,66.62
2023-01-26T11:41:12.543Z,66.75
2023-01-26T11:44:00.578Z,67.22
2023-01-26T11:46:56.320Z,68.64
2023-01-26T11:50:03.036Z,67.12
2023-01-26T11:52:53.231Z,66.96
2023-01-26T11:55:26.393Z,66.62
2023-01-26T11:58:06.589Z,66.10
2023-01-26T12:00:48.707Z,65.21
2023-01-26T12:03:32.933Z,65.20
2023-01-26T12:06:08.425Z,65.40
2023-01-26T12:08:45.480Z,65.51
2023-01-26T12:11:41.291Z,65.52
2023-01-26T12:14:46.279Z,64.34
2023-01-26T12:17:38.158Z,64.11
2023-01-26T12:20:49.423Z,64.15
2023-01-26T12:23:39.409Z,64.33
2023-01-26T12:26:16.575Z,64.11
2023-01-26T12:29:10.797Z,65.59
2023-01-26T12:31:52.778Z,64.59
2023-01-26T12:34:33.462Z,64.15
2023-01-26T12:37:12.751Z,65.29
2023-01-26T12:39:58.004Z,65.08
2023-01-26T12:42:49.518Z,66.18
2023-01-26T12:45:26.979Z,66.46
2023-01-26T12:48:07.180Z,67.49
2023-01-26T12:50:53.362Z,66.17
2023-01-26T12:54:02.205Z,65.55
2023-01-26T12:56:44.856Z,65.28
2023-01-26T12:59:47.087Z,65.61
2023-01-26T13:02:30.908Z,64.46
2023-01-26T13:05:03.561Z,65.15
2023-01-26T13:07:40.356Z,64.67
2023-01-26T13:10:16.387Z,63.14
2023-01-26T13:13:27.706Z,64.80
2023-01-26T13:16:19.757Z,65.21
2023-01-26T13:18:57.077Z,64.21
2023-01-26T13:21:39.587Z,64.42
2023-01-26T13:24:19.214Z,64.58
2023-01-26T13:26:54.111Z,63.60
2023-01-26T13:29:28.530Z,62.03
2023-01-26T13:32:20.077Z,63.64
2023-01-26T13:34:56.222Z,64.46
2023-01-26T13:37:39.239Z,67.22
2023-01-26T13:40:22.518Z,67.53
2023-01-26T13:43:26.277Z,68.08
2023-01-26T13:46:22.435Z,67.17
2023-01-26T13:48:55.276Z,67.53
2023-01-26T13:51:30.013Z,67.69
2023-01-26T13:54:03.561Z,68.59
2023-01-26T13:56:37.902Z,68.63
2023-01-26T13:59:17.371Z,67.61
2023-01-26T14:01:51.073Z,66.65
2023-01-26T14:04:28.566Z,67.05
2023-01-26T14:07:04.269Z,66.67
2023-01-26T14:09:47.040Z,66.50
2023-01-26T14:12:43.914Z,67.18
2023-01-26T14:15:30.039Z,66.99
2023-01-26T14:18:03.416Z,65.95
2023-01-26T14:20:43.827Z,67.49
2023-01-26T14:23:20.184Z,68.11
2023-01-26T14:26:21.617Z,67.98
2023-01-26T14:28:51.701Z,67.35
2023-01-26T14:31:30.034Z,65.01
2023-01-26T14:34:01.369Z,65.79
2023-01-26T14:36:40.424Z,64.77
2023-01-26T14:39:28.370Z,65.81
2023-01-26T14:41:59.700Z,64.68
2023-01-26T14:44:32.312Z,64.19
2023-01-26T14:47:12.228Z,64.50
2023-01-26T14:49:52.372Z,63.41
2023-01-26T14:52:29.138Z,64.17
2023-01-26T14:55:29.503Z,63.99
2023-01-26T14:58:01.072Z,63.51
2023-01-26T15:00:40.056Z,65.23
2023-01-26T15:03:18.984Z,64.70
2023-01-26T15:05:50.602Z,64.41
2023-01-26T15:08:29.124Z,63.77
2023-01-26T15:11:23.605Z,64.26
2023-01-26T15:14:00.612Z,63.91
2023-01-26T15:16:39.214Z,64.90
2023-01-26T15:19:23.802Z,64.22
2023-01-26T15:22:00.955Z,63.74
2023-01-26T15:24:35.315Z,64.48
2023-01-26T15:27:14.880Z,64.09
2023-01-26T15:32:35.554Z,64.18
2023-01-26T15:35:19.680Z,65.13
2023-01-26T15:37:53.746Z,63.81
2023-01-26T15:40:23.809Z,63.88
2023-01-26T15:43:07.221Z,63.83
2023-01-26T15:45:37.966Z,63.31
2023-01-26T15:48:08.637Z,63.75
2023-01-26T15:50:44.848Z,64.43
2023-01-26T15:53:21.830Z,64.63
2023-01-26T15:55:57.244Z,65.37
2023-01-26T15:58:32.970Z,65.42
2023-01-26T16:01:07.899Z,64.82
2023-01-26T16:03:38.840Z,65.77
2023-01-26T16:06:18.482Z,65.50
2023-01-26T16:08:49.627Z,65.60
2023-01-26T16:11:21.833Z,66.00
2023-01-26T16:14:02.829Z,65.32
2023-01-26T16:16:35.061Z,65.49
2023-01-26T16:19:07.153Z,65.48
2023-01-26T16:21:41.282Z,66.44
2023-01-26T16:24:13.489Z,65.76
2023-01-26T16:26:43.795Z,65.17
2023-01-26T16:29:13.767Z,65.48
2023-01-26T16:31:45.459Z,65.19
2023-01-26T16:34:16.189Z,66.02
2023-01-26T16:36:46.931Z,66.60
2023-01-26T16:39:17.059Z,66.43
2023-01-26T16:41:56.885Z,66.26
2023-01-26T16:44:27.579Z,67.22
2023-01-26T16:46:58.218Z,66.90
2023-01-26T16:49:30.947Z,66.98
2023-01-26T16:52:05.869Z,66.52
2023-01-26T16:54:36.716Z,65.60
2023-01-26T17:00:00.661Z,65.78
2023-01-26T17:02:39.686Z,66.15
2023-01-26T17:05:21.713Z,66.45
2023-01-26T17:07:52.454Z,66.23
2023-01-26T17:10:24.030Z,66.17
2023-01-26T17:12:55.881Z,66.78
2023-01-26T17:15:26.480Z,66.95
2023-01-26T17:17:56.712Z,66.96
2023-01-26T17:20:27.216Z,66.46
2023-01-26T17:23:06.869Z,66.38
2023-01-26T17:25:43.740Z,64.59
2023-01-26T17:28:14.166Z,64.78
2023-01-26T17:30:44.547Z,64.98
2023-01-26T17:33:15.136Z,64.57
2023-01-26T17:35:46.122Z,64.05
2023-01-26T17:38:16.928Z,64.45
2023-01-26T17:40:55.372Z,64.40
2023-01-26T17:43:26.897Z,64.44
2023-01-26T17:46:17.962Z,64.80
2023-01-26T17:48:52.343Z,64.19
2023-01-26T17:51:24.420Z,64.33
2023-01-26T17:53:55.585Z,64.28
2023-01-26T17:56:27.575Z,64.17
2023-01-26T17:58:58.332Z,64.11
2023-01-26T18:01:31.530Z,64.25
2023-01-26T18:04:03.900Z,63.97
2023-01-26T18:06:34.117Z,64.88
2023-01-26T18:09:05.519Z,65.06
2023-01-26T18:11:36.106Z,64.96
2023-01-26T18:14:06.752Z,64.94
2023-01-26T18:16:37.357Z,64.69
2023-01-26T18:19:07.489Z,64.33
2023-01-26T18:21:39.917Z,66.51
2023-01-26T18:24:10.590Z,66.34
2023-01-26T18:30:44.374Z,65.22
2023-01-26T18:33:15.019Z,65.37
2023-01-26T18:35:45.402Z,65.21
2023-01-26T18:38:15.772Z,65.36
2023-01-26T18:40:45.997Z,65.67
2023-01-26T18:43:16.305Z,65.01
2023-01-26T18:45:47.115Z,65.64
2023-01-26T18:48:18.798Z,65.14
2023-01-26T18:50:52.624Z,65.91
2023-01-26T18:53:23.425Z,65.23
2023-01-26T18:55:56.526Z,65.13
2023-01-26T18:58:26.836Z,65.83
2023-01-26T19:00:59.052Z,66.56
2023-01-26T19:03:32.170Z,66.21
2023-01-26T19:10:05.867Z,69.22
2023-01-26T19:12:35.825Z,70.21
2023-01-26T19:15:06.931Z,70.98
2023-01-26T19:17:39.820Z,70.98
2023-01-26T19:20:10.455Z,71.46
2023-01-26T19:22:40.465Z,71.66
2023-01-26T19:25:11.260Z,72.51
2023-01-26T19:27:43.368Z,72.41
2023-01-26T19:30:15.975Z,72.04
2023-01-26T19:33:06.978Z,72.72
2023-01-26T19:35:41.234Z,72.83
2023-01-26T19:38:11.333Z,73.48
2023-01-26T19:40:41.216Z,73.31
2023-01-26T19:43:11.485Z,73.50
2023-01-26T19:45:42.194Z,73.57
2023-01-26T19:48:12.492Z,73.84
2023-01-26T19:50:42.674Z,74.19
2023-01-26T19:53:16.198Z,74.11
2023-01-26T19:55:46.465Z,74.53
2023-01-26T19:58:16.661Z,74.24
2023-01-26T20:00:46.789Z,74.43
2023-01-26T20:03:16.935Z,74.52
2023-01-26T20:05:47.214Z,74.24
2023-01-26T20:08:17.143Z,74.14
2023-01-26T20:10:47.200Z,74.47
2023-01-26T20:13:17.199Z,74.12
2023-01-26T20:19:51.526Z,73.60
2023-01-26T20:22:22.087Z,73.77
2023-01-26T20:24:52.285Z,73.76
2023-01-26T20:27:22.134Z,73.29
2023-01-26T20:29:52.417Z,73.33
2023-01-26T20:32:22.591Z,73.26
2023-01-26T20:34:53.599Z,73.46
2023-01-26T20:37:25.720Z,74.02
2023-01-26T20:39:55.897Z,74.24
2023-01-26T20:42:25.844Z,74.07
2023-01-26T20:44:58.606Z,74.04
2023-01-26T20:51:32.437Z,74.44
2023-01-26T20:54:03.087Z,74.68
2023-01-26T20:56:33.435Z,74.75
2023-01-26T20:59:03.413Z,75.19
2023-01-26T21:22:01.719Z,76.50
2023-01-26T21:24:32.360Z,76.94
2023-01-26T21:27:03.859Z,76.93
2023-01-26T21:29:33.894Z,77.16
2023-01-26T21:32:06.208Z,77.25
2023-01-26T21:34:36.655Z,77.70
2023-01-26T21:37:07.579Z,77.86
2023-01-26T21:39:37.947Z,78.06
2023-01-26T21:42:08.378Z,77.91
2023-01-26T21:44:58.680Z,77.78
2023-01-26T21:47:28.899Z,77.55
2023-01-26T21:50:00.562Z,77.50
2023-01-26T21:52:48.326Z,77.28
2023-01-26T21:55:18.483Z,77.12
2023-01-26T22:00:53.221Z,77.19
2023-01-26T22:03:23.187Z,77.23
2023-01-26T22:05:54.746Z,77.40
2023-01-26T22:08:25.421Z,77.58
2023-01-26T22:10:56.672Z,77.72
2023-01-26T22:13:28.040Z,77.83
2023-01-26T22:16:04.403Z,78.02
2023-01-26T22:18:35.749Z,77.79
2023-01-26T22:21:05.948Z,77.88
2023-01-26T22:23:38.615Z,77.92
2023-01-26T22:26:11.587Z,78.09
2023-01-26T22:28:42.182Z,78.38
2023-01-26T22:31:15.998Z,78.53
2023-01-26T22:33:46.633Z,78.56
2023-01-26T22:36:21.020Z,78.75
2023-01-26T22:38:54.619Z,78.86
2023-01-26T22:41:30.263Z,78.98
2023-01-26T22:44:05.717Z,79.01
2023-01-26T22:46:38.366Z,79.14
2023-01-26T22:49:08.686Z,79.11
2023-01-26T22:51:40.885Z,79.03
2023-01-26T22:54:13.601Z,79.01
2023-01-26T22:56:43.844Z,78.83
2023-01-26T22:59:13.749Z,78.42
2023-01-26T23:01:44.210Z,78.34
2023-01-26T23:04:16.505Z,78.02
2023-01-26T23:06:47.177Z,77.98
2023-01-26T23:09:18.306Z,77.54
2023-01-26T23:12:04.519Z,76.93
2023-01-26T23:14:35.795Z,76.88
2023-01-26T23:17:06.750Z,76.37
2023-01-26T23:19:37.014Z,76.15
2023-01-26T23:22:07.271Z,75.89
2023-01-26T23:24:37.218Z,75.58
2023-01-26T23:27:08.964Z,75.69
2023-01-26T23:29:39.257Z,75.78
2023-01-26T23:32:09.443Z,75.68
2023-01-26T23:34:39.587Z,76.28
2023-01-26T23:37:10.048Z,76.39
2023-01-26T23:39:40.453Z,76.08
2023-01-26T23:42:10.539Z,75.69
2023-01-26T23:44:43.755Z,75.54
2023-01-26T23:47:17.638Z,75.44
2023-01-26T23:49:58.476Z,76.08
2023-01-26T23:53:24.951Z,76.42
2023-01-26T23:56:19.041Z,76.69
2023-01-26T23:58:50.367Z,76.73
